createdAt,value
2022-11-08T00:00:13.260Z,1.42
2022-11-08T00:03:00.701Z,1.35
2022-11-08T00:06:04.855Z,1.00
2022-11-08T00:09:10.679Z,1.52
2022-11-08T00:12:15.119Z,0.98
2022-11-08T00:15:03.158Z,1.35
2022-11-08T00:17:50.197Z,1.30
2022-11-08T00:20:37.495Z,1.20
2022-11-08T00:23:24.430Z,1.17
2022-11-08T00:26:13.170Z,1.48
2022-11-08T00:29:00.166Z,1.40
2022-11-08T00:31:47.494Z,1.55
2022-11-08T00:34:34.788Z,1.40
2022-11-08T00:37:23.107Z,1.45
2022-11-08T00:40:11.399Z,1.17
2022-11-08T00:42:59.995Z,1.65
2022-11-08T00:45:46.794Z,1.08
2022-11-08T00:48:33.704Z,1.15
2022-11-08T00:51:20.541Z,1.55
2022-11-08T00:54:09.082Z,1.40
2022-11-08T00:56:56.500Z,1.27
2022-11-08T00:59:45.146Z,1.10
2022-11-08T01:02:32.095Z,1.30
2022-11-08T01:05:19.364Z,1.50
2022-11-08T01:08:06.322Z,1.75
2022-11-08T01:10:54.222Z,1.37
2022-11-08T01:13:42.256Z,1.20
2022-11-08T01:16:33.742Z,1.33
2022-11-08T01:19:20.617Z,1.25
2022-11-08T01:22:08.291Z,1.15
2022-11-08T01:24:55.231Z,1.60
2022-11-08T01:27:43.593Z,1.10
2022-11-08T01:30:30.622Z,1.48
2022-11-08T01:33:19.476Z,1.17
2022-11-08T01:36:07.930Z,1.55
2022-11-08T01:38:55.752Z,1.23
2022-11-08T01:41:43.064Z,1.60
2022-11-08T01:44:30.174Z,1.23
2022-11-08T01:47:16.984Z,1.15
2022-11-08T01:50:09.085Z,1.23
2022-11-08T01:52:57.028Z,1.05
2022-11-08T01:55:44.318Z,1.50
2022-11-08T01:58:37.163Z,1.05
2022-11-08T02:01:24.327Z,1.08
2022-11-08T02:04:13.454Z,1.30
2022-11-08T02:07:02.805Z,1.52
2022-11-08T02:09:50.055Z,1.50
2022-11-08T02:12:37.034Z,1.58
2022-11-08T02:15:26.299Z,1.60
2022-11-08T02:18:14.156Z,1.20
2022-11-08T02:21:09.648Z,1.70
2022-11-08T02:24:00.549Z,1.30
2022-11-08T02:26:48.482Z,1.00
2022-11-08T02:29:36.822Z,1.37
2022-11-08T02:32:24.780Z,1.42
2022-11-08T02:35:16.064Z,1.60
2022-11-08T02:38:02.985Z,1.20
2022-11-08T02:40:52.804Z,1.27
2022-11-08T02:43:40.056Z,1.25
2022-11-08T02:46:26.920Z,1.33
2022-11-08T02:49:14.458Z,1.20
2022-11-08T02:52:01.367Z,1.20
2022-11-08T02:54:48.877Z,1.12
2022-11-08T02:57:37.344Z,1.20
2022-11-08T03:00:24.824Z,1.27
2022-11-08T03:03:11.869Z,1.00
2022-11-08T03:05:59.453Z,1.10
2022-11-08T03:08:46.057Z,1.80
2022-11-08T03:11:33.034Z,1.30
2022-11-08T03:14:21.476Z,1.37
2022-11-08T03:17:08.336Z,1.52
2022-11-08T03:19:56.240Z,1.52
2022-11-08T03:22:43.780Z,1.48
2022-11-08T03:25:31.107Z,1.08
2022-11-08T03:28:22.700Z,1.20
2022-11-08T03:31:11.553Z,1.45
2022-11-08T03:33:58.853Z,1.40
2022-11-08T03:36:45.692Z,1.40
2022-11-08T03:39:33.105Z,1.12
2022-11-08T03:42:19.921Z,1.30
2022-11-08T03:45:08.207Z,1.20
2022-11-08T03:47:56.341Z,1.30
2022-11-08T03:50:43.664Z,1.08
2022-11-08T03:53:30.570Z,1.50
2022-11-08T03:56:17.820Z,1.83
2022-11-08T03:59:05.010Z,1.77
2022-11-08T04:01:52.224Z,1.55
2022-11-08T04:04:40.871Z,1.58
2022-11-08T04:07:28.703Z,1.52
2022-11-08T04:10:17.839Z,1.67
2022-11-08T04:13:22.202Z,1.92
2022-11-08T04:16:13.901Z,1.40
2022-11-08T04:19:21.414Z,1.37
2022-11-08T04:22:12.304Z,1.55
2022-11-08T04:24:59.343Z,1.80
2022-11-08T04:27:47.913Z,1.37
2022-11-08T04:30:36.137Z,1.42
2022-11-08T04:33:26.118Z,1.40
2022-11-08T04:36:16.006Z,1.85
2022-11-08T04:39:05.353Z,1.60
2022-11-08T04:41:54.537Z,2.25
2022-11-08T04:44:45.443Z,1.92
2022-11-08T04:47:37.641Z,1.87
2022-11-08T04:50:26.949Z,1.73
2022-11-08T04:53:13.788Z,1.52
2022-11-08T04:56:07.651Z,1.12
2022-11-08T04:58:56.322Z,1.35
2022-11-08T05:01:43.924Z,1.05
2022-11-08T05:04:30.972Z,1.33
2022-11-08T05:07:18.164Z,1.60
2022-11-08T05:10:05.586Z,1.45
2022-11-08T05:12:58.107Z,1.42
2022-11-08T05:15:44.810Z,1.20
2022-11-08T05:18:32.645Z,1.33
2022-11-08T05:21:38.762Z,1.45
2022-11-08T05:24:25.821Z,1.65
2022-11-08T05:27:12.460Z,1.27
2022-11-08T05:30:00.916Z,1.40
2022-11-08T05:32:47.664Z,1.30
2022-11-08T05:35:35.135Z,1.12
2022-11-08T05:38:22.562Z,1.27
2022-11-08T05:41:12.551Z,1.20
2022-11-08T05:43:59.468Z,1.25
2022-11-08T05:46:48.205Z,1.17
2022-11-08T05:49:35.324Z,1.33
2022-11-08T05:52:22.631Z,1.65
2022-11-08T05:55:10.363Z,1.58
2022-11-08T05:57:57.383Z,1.23
2022-11-08T06:00:44.203Z,1.20
2022-11-08T06:03:33.222Z,1.40
2022-11-08T06:06:21.651Z,1.50
2022-11-08T06:09:09.515Z,1.30
2022-11-08T06:11:56.454Z,1.40
2022-11-08T06:14:43.469Z,1.30
2022-11-08T06:17:30.445Z,1.50
2022-11-08T06:20:19.260Z,1.27
2022-11-08T06:23:06.190Z,1.17
2022-11-08T06:25:53.444Z,1.48
2022-11-08T06:28:40.201Z,1.87
2022-11-08T06:31:27.747Z,1.65
2022-11-08T06:34:14.662Z,1.05
2022-11-08T06:37:03.331Z,1.60
2022-11-08T06:39:50.361Z,1.67
2022-11-08T06:42:37.675Z,1.50
2022-11-08T06:45:24.388Z,1.10
2022-11-08T06:48:11.711Z,0.90
2022-11-08T06:50:58.397Z,2.20
2022-11-08T06:53:47.156Z,1.80
2022-11-08T06:56:34.572Z,1.70
2022-11-08T06:59:21.815Z,1.52
2022-11-08T07:02:10.263Z,1.33
2022-11-08T07:04:57.584Z,1.73
2022-11-08T07:07:44.466Z,1.62
2022-11-08T07:10:34.430Z,1.20
2022-11-08T07:13:21.678Z,2.03
2022-11-08T07:16:09.973Z,1.20
2022-11-08T07:18:56.695Z,1.60
2022-11-08T07:21:43.491Z,1.73
2022-11-08T07:24:30.290Z,1.30
2022-11-08T07:27:18.713Z,1.40
2022-11-08T07:30:06.649Z,1.10
2022-11-08T07:32:56.133Z,1.65
2022-11-08T07:35:43.021Z,1.40
2022-11-08T07:38:30.258Z,1.15
2022-11-08T07:41:17.359Z,1.50
2022-11-08T07:44:05.988Z,1.37
2022-11-08T07:46:52.734Z,1.40
2022-11-08T07:49:39.673Z,1.98
2022-11-08T07:52:50.820Z,1.50
2022-11-08T07:55:42.069Z,1.73
2022-11-08T07:58:32.302Z,1.10
2022-11-08T08:01:26.174Z,1.30
2022-11-08T08:04:38.814Z,1.33
2022-11-08T08:07:44.377Z,1.65
2022-11-08T08:10:35.070Z,1.80
2022-11-08T08:13:47.482Z,1.65
2022-11-08T08:16:37.927Z,1.70
2022-11-08T08:19:25.878Z,1.75
2022-11-08T08:22:15.471Z,1.30
2022-11-08T08:25:05.889Z,1.30
2022-11-08T08:27:55.080Z,1.20
2022-11-08T08:30:43.612Z,1.10
2022-11-08T08:33:51.083Z,1.35
2022-11-08T08:37:01.605Z,1.00
2022-11-08T08:39:50.969Z,1.40
2022-11-08T08:42:54.063Z,0.70
2022-11-08T08:45:41.992Z,0.90
2022-11-08T08:48:29.389Z,1.02
2022-11-08T08:51:21.465Z,0.80
2022-11-08T08:54:29.629Z,1.12
2022-11-08T08:57:19.616Z,1.50
2022-11-08T09:03:24.492Z,1.10
2022-11-08T09:06:31.939Z,1.02
2022-11-08T09:09:39.778Z,1.35
2022-11-08T09:12:26.275Z,1.30
2022-11-08T09:15:13.598Z,1.27
2022-11-08T09:18:00.580Z,1.10
2022-11-08T09:20:48.457Z,1.27
2022-11-08T09:23:36.912Z,1.15
2022-11-08T09:26:24.127Z,1.40
2022-11-08T09:29:10.809Z,1.40
2022-11-08T09:31:57.911Z,0.93
2022-11-08T09:34:45.628Z,1.17
2022-11-08T09:37:32.435Z,1.05
2022-11-08T09:40:24.651Z,0.98
2022-11-08T09:43:31.672Z,1.00
2022-11-08T09:46:28.848Z,1.20
2022-11-08T09:49:22.850Z,1.05
2022-11-08T09:52:17.305Z,0.93
2022-11-08T09:55:17.138Z,1.02
2022-11-08T09:58:22.633Z,1.20
2022-11-08T10:01:12.574Z,1.33
2022-11-08T10:04:03.421Z,0.75
2022-11-08T10:07:09.936Z,0.70
2022-11-08T10:10:25.351Z,0.90
2022-11-08T10:13:27.823Z,1.12
2022-11-08T10:16:38.118Z,0.90
2022-11-08T10:19:53.187Z,0.80
2022-11-08T10:22:50.023Z,0.98
2022-11-08T10:25:45.387Z,0.75
2022-11-08T10:28:37.848Z,0.70
2022-11-08T10:31:24.542Z,0.93
2022-11-08T10:34:16.148Z,0.60
2022-11-08T10:37:06.464Z,0.77
2022-11-08T10:39:59.595Z,0.62
2022-11-08T10:42:51.534Z,0.80
2022-11-08T10:45:40.386Z,0.70
2022-11-08T10:48:27.248Z,1.12
2022-11-08T10:51:14.325Z,0.70
2022-11-08T10:54:01.626Z,0.80
2022-11-08T10:56:56.562Z,0.80
2022-11-08T10:59:44.081Z,0.82
2022-11-08T11:02:36.518Z,0.88
2022-11-08T11:05:35.631Z,0.80
2022-11-08T11:08:23.110Z,0.77
2022-11-08T11:11:24.451Z,0.60
2022-11-08T11:14:21.820Z,0.88
2022-11-08T11:17:17.762Z,0.98
2022-11-08T11:20:07.187Z,0.85
2022-11-08T11:22:54.518Z,0.60
2022-11-08T11:25:51.731Z,0.50
2022-11-08T11:28:38.953Z,0.60
2022-11-08T11:31:26.064Z,0.50
2022-11-08T11:34:36.916Z,0.80
2022-11-08T11:37:30.933Z,0.95
2022-11-08T11:40:25.614Z,0.50
2022-11-08T11:43:19.710Z,0.80
2022-11-08T11:46:14.550Z,0.50
2022-11-08T11:49:05.755Z,0.55
2022-11-08T11:51:55.033Z,0.73
2022-11-08T11:54:46.319Z,0.80
2022-11-08T11:57:41.440Z,0.80
2022-11-08T12:00:28.354Z,0.93
2022-11-08T12:03:31.877Z,0.60
2022-11-08T12:06:44.046Z,0.77
2022-11-08T12:09:42.702Z,0.85
2022-11-08T12:12:46.479Z,0.52
2022-11-08T12:15:42.468Z,0.57
2022-11-08T12:18:44.917Z,0.70
2022-11-08T12:21:41.294Z,0.80
2022-11-08T12:24:43.600Z,0.70
2022-11-08T12:27:45.059Z,0.90
2022-11-08T12:30:39.227Z,0.80
2022-11-08T12:33:37.273Z,0.80
2022-11-08T12:36:33.778Z,0.65
2022-11-08T12:39:34.363Z,1.17
2022-11-08T12:42:56.101Z,0.90
2022-11-08T12:45:56.724Z,0.70
2022-11-08T12:49:20.156Z,0.50
2022-11-08T12:52:19.894Z,0.70
2022-11-08T12:55:14.748Z,0.60
2022-11-08T12:58:03.890Z,0.70
2022-11-08T13:00:55.669Z,0.60
2022-11-08T13:04:20.230Z,0.45
2022-11-08T13:07:17.331Z,0.80
2022-11-08T13:10:13.811Z,0.60
2022-11-08T13:13:25.588Z,0.43
2022-11-08T13:16:16.515Z,0.30
2022-11-08T13:19:05.849Z,0.40
2022-11-08T13:21:53.308Z,0.60
2022-11-08T13:24:44.713Z,0.40
2022-11-08T13:27:35.208Z,0.52
2022-11-08T13:30:40.344Z,0.52
2022-11-08T13:33:32.469Z,0.60
2022-11-08T13:36:28.497Z,0.60
2022-11-08T13:39:32.188Z,0.40
2022-11-08T13:42:39.098Z,0.50
2022-11-08T13:45:30.893Z,0.70
2022-11-08T13:48:42.378Z,0.30
2022-11-08T13:51:30.742Z,0.60
2022-11-08T13:54:48.544Z,0.50
2022-11-08T13:58:00.012Z,0.50
2022-11-08T14:00:47.740Z,0.55
2022-11-08T14:03:56.760Z,0.47
2022-11-08T14:06:52.036Z,0.40
2022-11-08T14:09:46.609Z,0.50
2022-11-08T14:12:42.585Z,0.47
2022-11-08T14:15:35.542Z,0.70
2022-11-08T14:18:27.461Z,0.50
2022-11-08T14:21:20.049Z,0.50
2022-11-08T14:24:07.796Z,0.60
2022-11-08T14:26:55.114Z,0.62
2022-11-08T14:29:42.636Z,0.55
2022-11-08T14:32:30.621Z,0.37
2022-11-08T14:35:25.842Z,0.50
2022-11-08T14:38:16.260Z,0.68
2022-11-08T14:41:05.504Z,0.65
2022-11-08T14:43:55.163Z,0.80
2022-11-08T14:46:42.157Z,0.50
2022-11-08T14:49:34.469Z,0.55
2022-11-08T14:52:24.572Z,0.50
2022-11-08T14:55:15.172Z,0.40
2022-11-08T14:58:13.728Z,0.43
2022-11-08T15:01:03.097Z,0.40
2022-11-08T15:03:55.510Z,0.60
2022-11-08T15:06:45.604Z,0.40
2022-11-08T15:09:36.201Z,0.60
2022-11-08T15:12:26.183Z,0.30
2022-11-08T15:15:21.263Z,0.50
2022-11-08T15:18:17.409Z,0.40
2022-11-08T15:21:07.064Z,0.50
2022-11-08T15:23:54.934Z,0.30
2022-11-08T15:27:01.067Z,0.50
2022-11-08T15:29:55.320Z,0.30
2022-11-08T15:32:42.961Z,0.50
2022-11-08T15:35:35.098Z,0.30
2022-11-08T15:38:31.387Z,0.65
2022-11-08T15:41:32.930Z,0.40
2022-11-08T15:44:23.925Z,0.40
2022-11-08T15:47:44.532Z,0.35
2022-11-08T15:50:33.248Z,0.35
2022-11-08T15:53:20.932Z,0.60
2022-11-08T15:56:08.380Z,0.50
2022-11-08T15:58:55.948Z,0.60
2022-11-08T16:01:50.740Z,0.80
2022-11-08T16:04:39.313Z,0.43
2022-11-08T16:07:26.837Z,0.82
2022-11-08T16:10:14.877Z,0.90
2022-11-08T16:13:01.575Z,0.70
2022-11-08T16:15:49.182Z,0.85
2022-11-08T16:18:36.102Z,0.55
2022-11-08T16:21:24.138Z,0.70
2022-11-08T16:24:11.075Z,0.98
2022-11-08T16:26:58.381Z,0.90
2022-11-08T16:29:45.111Z,0.90
2022-11-08T16:32:32.338Z,1.17
2022-11-08T16:35:20.088Z,1.67
2022-11-08T16:38:11.438Z,1.23
2022-11-08T16:40:58.071Z,1.02
2022-11-08T16:43:45.507Z,0.85
2022-11-08T16:46:32.213Z,0.85
2022-11-08T16:49:26.770Z,0.73
2022-11-08T16:52:14.769Z,0.65
2022-11-08T16:55:04.607Z,1.20
2022-11-08T16:57:51.574Z,1.70
2022-11-08T17:00:39.872Z,0.90
2022-11-08T17:03:29.685Z,0.93
2022-11-08T17:06:19.204Z,0.62
2022-11-08T17:09:06.064Z,0.70
2022-11-08T17:11:54.221Z,0.70
2022-11-08T17:14:41.043Z,1.10
2022-11-08T17:17:28.547Z,0.70
2022-11-08T17:20:17.219Z,0.85
2022-11-08T17:23:04.502Z,0.85
2022-11-08T17:25:51.106Z,1.10
2022-11-08T17:28:39.768Z,0.75
2022-11-08T17:31:26.765Z,0.70
2022-11-08T17:34:13.994Z,1.10
2022-11-08T17:37:01.109Z,0.95
2022-11-08T17:39:48.520Z,0.65
2022-11-08T17:42:38.252Z,1.10
2022-11-08T17:45:27.674Z,0.73
2022-11-08T17:48:15.561Z,1.20
2022-11-08T17:51:03.008Z,0.65
2022-11-08T17:53:50.052Z,1.10
2022-11-08T17:56:37.455Z,1.02
2022-11-08T17:59:24.422Z,1.17
2022-11-08T18:02:13.625Z,1.30
2022-11-08T18:05:00.623Z,1.10
2022-11-08T18:07:47.603Z,1.42
2022-11-08T18:10:35.750Z,1.60
2022-11-08T18:13:23.726Z,1.70
2022-11-08T18:16:23.265Z,1.85
2022-11-08T18:19:12.378Z,2.15
2022-11-08T18:22:07.240Z,1.83
2022-11-08T18:25:00.476Z,1.20
2022-11-08T18:27:50.607Z,1.10
2022-11-08T18:30:38.397Z,1.30
2022-11-08T18:33:26.086Z,0.93
2022-11-08T18:36:16.821Z,1.20
2022-11-08T18:39:05.045Z,1.27
2022-11-08T18:42:01.428Z,1.30
2022-11-08T18:44:49.481Z,1.45
2022-11-08T18:47:36.395Z,1.52
2022-11-08T18:50:23.958Z,1.20
2022-11-08T18:53:12.558Z,0.90
2022-11-08T18:56:00.284Z,0.88
2022-11-08T18:58:47.819Z,1.40
2022-11-08T19:01:35.228Z,1.10
2022-11-08T19:04:22.142Z,1.23
2022-11-08T19:07:10.196Z,1.10
2022-11-08T19:09:58.535Z,0.98
2022-11-08T19:12:45.652Z,1.33
2022-11-08T19:15:32.701Z,1.40
2022-11-08T19:18:20.135Z,1.50
2022-11-08T19:21:09.491Z,1.00
2022-11-08T19:23:59.117Z,1.33
2022-11-08T19:26:47.306Z,0.95
2022-11-08T19:29:34.557Z,1.10
2022-11-08T19:32:23.194Z,1.27
2022-11-08T19:35:11.046Z,1.20
2022-11-08T19:37:58.262Z,0.88
2022-11-08T19:40:47.274Z,1.10
2022-11-08T19:43:36.656Z,1.42
2022-11-08T19:46:26.787Z,1.08
2022-11-08T19:49:13.821Z,1.10
2022-11-08T19:52:01.415Z,1.30
2022-11-08T19:54:48.287Z,0.75
2022-11-08T19:57:35.955Z,1.37
2022-11-08T20:00:24.268Z,0.98
2022-11-08T20:03:11.607Z,1.40
2022-11-08T20:05:59.036Z,1.20
2022-11-08T20:08:48.599Z,0.90
2022-11-08T20:11:37.922Z,1.10
2022-11-08T20:14:25.389Z,1.40
2022-11-08T20:17:13.724Z,1.40
2022-11-08T20:20:01.278Z,0.90
2022-11-08T20:22:48.463Z,1.17
2022-11-08T20:25:36.622Z,0.88
2022-11-08T20:28:23.987Z,1.00
2022-11-08T20:31:17.199Z,1.02
2022-11-08T20:34:10.341Z,1.00
2022-11-08T20:36:57.502Z,1.12
2022-11-08T20:39:44.711Z,1.45
2022-11-08T20:42:31.936Z,1.17
2022-11-08T20:45:18.739Z,1.17
2022-11-08T20:48:06.666Z,1.05
2022-11-08T20:50:57.809Z,1.05
2022-11-08T20:53:46.015Z,1.30
2022-11-08T20:56:33.181Z,0.95
2022-11-08T20:59:20.624Z,1.67
2022-11-08T21:02:07.614Z,1.40
2022-11-08T21:04:55.159Z,1.17
2022-11-08T21:10:56.267Z,1.17
2022-11-08T21:13:44.842Z,1.23
2022-11-08T21:16:59.504Z,1.40
2022-11-08T21:19:40.861Z,1.15
2022-11-08T21:22:27.870Z,1.50
2022-11-08T21:25:16.333Z,1.15
2022-11-08T21:28:03.838Z,1.17
2022-11-08T21:30:51.004Z,1.33
2022-11-08T21:33:38.705Z,1.40
2022-11-08T21:36:27.030Z,1.00
2022-11-08T21:39:14.363Z,1.12
2022-11-08T21:42:02.565Z,1.05
2022-11-08T21:44:49.562Z,1.37
2022-11-08T21:47:36.578Z,1.10
2022-11-08T21:50:24.213Z,1.25
2022-11-08T21:53:13.771Z,1.02
2022-11-08T21:56:01.107Z,1.42
2022-11-08T21:58:49.430Z,1.50
2022-11-08T22:01:36.187Z,1.25
2022-11-08T22:04:23.555Z,1.20
2022-11-08T22:07:10.108Z,1.37
2022-11-08T22:09:57.566Z,1.05
2022-11-08T22:12:44.425Z,1.25
2022-11-08T22:15:32.530Z,1.10
2022-11-08T22:18:31.187Z,1.27
2022-11-08T22:21:39.435Z,1.20
2022-11-08T22:24:26.424Z,1.15
2022-11-08T22:27:14.091Z,1.30
2022-11-08T22:30:01.371Z,0.82
2022-11-08T22:32:50.053Z,0.82
2022-11-08T22:35:36.659Z,1.10
2022-11-08T22:38:23.915Z,0.93
2022-11-08T22:41:10.773Z,1.10
2022-11-08T22:43:58.309Z,0.90
2022-11-08T22:46:46.536Z,1.15
2022-11-08T22:49:34.996Z,1.15
2022-11-08T22:52:21.700Z,1.25
2022-11-08T22:55:10.072Z,1.12
2022-11-08T22:57:56.958Z,0.70
2022-11-08T23:00:43.943Z,1.30
2022-11-08T23:03:30.899Z,0.95
2022-11-08T23:06:19.225Z,1.12
2022-11-08T23:09:06.078Z,1.20
2022-11-08T23:12:10.507Z,1.20
2022-11-08T23:15:23.073Z,0.90
2022-11-08T23:18:10.422Z,1.20
2022-11-08T23:21:14.926Z,0.93
2022-11-08T23:24:21.183Z,0.80
2022-11-08T23:27:26.173Z,1.25
2022-11-08T23:30:33.347Z,0.77
2022-11-08T23:33:20.245Z,0.93
2022-11-08T23:36:15.584Z,1.10
2022-11-08T23:39:03.879Z,1.08
2022-11-08T23:42:08.463Z,1.02
2022-11-08T23:44:54.991Z,1.02
2022-11-08T23:47:41.894Z,1.02
2022-11-08T23:50:28.790Z,0.70
2022-11-08T23:53:16.517Z,0.90
2022-11-08T23:56:05.508Z,0.90
2022-11-08T23:58:53.335Z,0.88
